createdAt,value
2022-08-05T00:00:16.139Z,22.20
2022-08-05T00:02:50.648Z,22.20
2022-08-05T00:06:03.179Z,22.20
2022-08-05T00:08:32.417Z,22.20
2022-08-05T00:10:57.077Z,22.10
2022-08-05T00:13:39.608Z,22.00
2022-08-05T00:16:08.878Z,22.00
2022-08-05T00:18:38.232Z,21.90
2022-08-05T00:21:06.908Z,21.90
2022-08-05T00:23:46.702Z,21.80
2022-08-05T00:26:22.386Z,21.80
2022-08-05T00:28:51.230Z,21.80
2022-08-05T00:31:54.289Z,22.00
2022-08-05T00:34:56.561Z,21.90
2022-08-05T00:37:11.542Z,21.80
2022-08-05T00:39:57.489Z,21.70
2022-08-05T00:42:33.424Z,21.80
2022-08-05T00:45:01.287Z,21.80
2022-08-05T00:47:53.283Z,21.90
2022-08-05T00:50:18.501Z,21.70
2022-08-05T00:52:48.942Z,21.70
2022-08-05T00:55:16.802Z,21.70
2022-08-05T00:57:58.077Z,21.50
2022-08-05T01:00:27.545Z,21.50
2022-08-05T01:02:55.865Z,21.60
2022-08-05T01:05:27.568Z,21.70
2022-08-05T01:08:40.333Z,21.80
2022-08-05T01:10:52.154Z,21.80
2022-08-05T01:13:27.175Z,21.90
2022-08-05T01:15:59.677Z,21.90
2022-08-05T01:18:30.847Z,21.80
2022-08-05T01:21:07.511Z,21.60
2022-08-05T01:23:53.027Z,21.60
2022-08-05T01:26:31.039Z,21.40
2022-08-05T01:29:05.181Z,21.30
2022-08-05T01:31:42.798Z,21.20
2022-08-05T01:34:14.792Z,21.00
2022-08-05T01:36:48.445Z,21.10
2022-08-05T01:39:46.017Z,21.10
2022-08-05T01:42:06.540Z,21.10
2022-08-05T01:44:40.161Z,21.00
2022-08-05T01:47:09.600Z,21.00
2022-08-05T01:50:00.407Z,21.10
2022-08-05T01:52:26.510Z,21.00
2022-08-05T01:54:56.827Z,20.90
2022-08-05T01:58:10.637Z,20.70
2022-08-05T02:00:16.292Z,20.70
2022-08-05T02:02:53.666Z,20.80
2022-08-05T02:05:24.125Z,20.90
2022-08-05T02:08:00.122Z,20.90
2022-08-05T02:10:32.004Z,21.00
2022-08-05T02:13:16.284Z,21.10
2022-08-05T02:15:48.412Z,20.90
2022-08-05T02:18:32.055Z,20.90
2022-08-05T02:21:06.517Z,20.90
2022-08-05T02:23:45.992Z,20.90
2022-08-05T02:26:15.777Z,20.80
2022-08-05T02:28:46.262Z,20.90
2022-08-05T02:31:22.700Z,20.90
2022-08-05T02:33:57.850Z,20.80
2022-08-05T02:36:27.428Z,20.80
2022-08-05T02:38:56.584Z,20.90
2022-08-05T02:41:28.671Z,21.00
2022-08-05T02:44:13.104Z,21.00
2022-08-05T02:46:58.741Z,21.00
2022-08-05T02:49:36.037Z,21.00
2022-08-05T02:52:06.368Z,21.00
2022-08-05T02:54:37.260Z,21.00
2022-08-05T02:57:09.897Z,21.00
2022-08-05T02:59:50.705Z,21.00
2022-08-05T03:02:23.864Z,20.90
2022-08-05T03:04:55.734Z,20.90
2022-08-05T03:07:40.613Z,20.90
2022-08-05T03:10:13.403Z,21.00
2022-08-05T03:12:41.359Z,21.20
2022-08-05T03:15:12.431Z,20.90
2022-08-05T03:17:44.775Z,21.00
2022-08-05T03:20:13.504Z,21.00
2022-08-05T03:22:46.934Z,20.80
2022-08-05T03:25:33.269Z,20.80
2022-08-05T03:28:08.470Z,20.80
2022-08-05T03:30:36.815Z,20.80
2022-08-05T03:33:07.766Z,20.80
2022-08-05T03:35:41.480Z,20.70
2022-08-05T03:38:11.835Z,20.70
2022-08-05T03:40:41.457Z,20.80
2022-08-05T03:43:58.307Z,20.90
2022-08-05T03:46:01.582Z,20.80
2022-08-05T03:48:35.645Z,20.80
2022-08-05T03:52:34.713Z,20.80
2022-08-05T03:55:50.797Z,20.80
2022-08-05T03:59:20.480Z,20.50
2022-08-05T04:01:50.141Z,20.50
2022-08-05T04:04:21.486Z,20.50
2022-08-05T04:06:51.301Z,20.50
2022-08-05T04:09:20.321Z,20.40
2022-08-05T04:11:54.123Z,20.40
2022-08-05T04:14:29.924Z,20.40
2022-08-05T04:16:59.867Z,20.40
2022-08-05T04:19:30.332Z,20.50
2022-08-05T04:22:09.352Z,20.50
2022-08-05T04:24:44.542Z,20.40
2022-08-05T04:27:32.955Z,20.40
2022-08-05T04:30:06.914Z,20.30
2022-08-05T04:32:34.923Z,20.40
2022-08-05T04:35:06.067Z,20.30
2022-08-05T04:38:00.979Z,20.30
2022-08-05T04:40:21.807Z,20.30
2022-08-05T04:42:49.620Z,20.30
2022-08-05T04:45:23.068Z,20.20
2022-08-05T04:48:06.244Z,20.20
2022-08-05T04:51:02.502Z,20.20
2022-08-05T04:53:33.706Z,20.10
2022-08-05T04:56:33.123Z,20.20
2022-08-05T04:58:51.477Z,20.10
2022-08-05T05:02:08.195Z,20.20
2022-08-05T05:04:08.158Z,20.20
2022-08-05T05:06:40.942Z,20.10
2022-08-05T05:09:17.318Z,20.20
2022-08-05T05:11:53.041Z,20.20
2022-08-05T05:14:31.273Z,20.20
2022-08-05T05:17:00.182Z,20.20
2022-08-05T05:19:36.986Z,20.20
2022-08-05T05:22:23.712Z,20.20
2022-08-05T05:24:58.322Z,20.20
2022-08-05T05:27:44.499Z,20.10
2022-08-05T05:30:15.398Z,20.20
2022-08-05T05:32:43.771Z,20.30
2022-08-05T05:35:19.884Z,20.30
2022-08-05T05:38:00.213Z,20.30
2022-08-05T05:40:32.150Z,20.40
2022-08-05T05:43:00.406Z,20.40
2022-08-05T05:45:30.295Z,20.40
2022-08-05T05:48:06.224Z,20.40
2022-08-05T05:50:41.149Z,20.50
2022-08-05T05:53:21.309Z,20.40
2022-08-05T05:55:52.364Z,20.40
2022-08-05T05:58:31.753Z,20.40
2022-08-05T06:01:12.065Z,20.40
2022-08-05T06:04:00.834Z,20.40
2022-08-05T06:06:31.108Z,20.40
2022-08-05T06:09:03.879Z,20.40
2022-08-05T06:11:32.089Z,20.40
2022-08-05T06:14:00.387Z,20.50
2022-08-05T06:16:36.693Z,20.60
2022-08-05T06:19:07.566Z,20.50
2022-08-05T06:21:42.240Z,20.70
2022-08-05T06:24:18.573Z,20.70
2022-08-05T06:26:53.749Z,20.70
2022-08-05T06:29:25.525Z,20.60
2022-08-05T06:32:25.147Z,20.70
2022-08-05T06:34:57.794Z,20.80
2022-08-05T06:37:57.321Z,20.90
2022-08-05T06:40:18.409Z,21.00
2022-08-05T06:42:52.306Z,21.00
2022-08-05T06:45:45.096Z,21.10
2022-08-05T06:48:47.116Z,21.10
2022-08-05T06:50:56.970Z,21.10
2022-08-05T06:53:27.894Z,21.30
2022-08-05T06:55:58.213Z,21.40
2022-08-05T06:58:30.169Z,21.50
2022-08-05T07:01:05.882Z,21.70
2022-08-05T07:03:34.156Z,21.70
2022-08-05T07:06:05.907Z,21.80
2022-08-05T07:08:42.882Z,21.70
2022-08-05T07:11:16.811Z,21.60
2022-08-05T07:14:07.780Z,21.70
2022-08-05T07:17:58.405Z,21.80
2022-08-05T07:22:30.095Z,22.00
2022-08-05T07:24:59.249Z,22.20
2022-08-05T07:27:57.639Z,22.00
2022-08-05T07:30:23.826Z,22.20
2022-08-05T07:32:56.311Z,22.30
2022-08-05T07:36:05.228Z,22.30
2022-08-05T07:38:33.720Z,22.40
2022-08-05T07:41:16.635Z,22.70
2022-08-05T07:43:50.710Z,22.50
2022-08-05T07:46:24.610Z,22.70
2022-08-05T07:49:02.069Z,22.80
2022-08-05T07:51:37.057Z,22.80
2022-08-05T07:54:09.684Z,22.80
2022-08-05T07:57:01.155Z,22.80
2022-08-05T07:59:38.580Z,22.80
2022-08-05T08:02:15.264Z,22.80
2022-08-05T08:04:44.762Z,22.90
2022-08-05T08:07:13.190Z,22.90
2022-08-05T08:09:41.111Z,22.80
2022-08-05T08:12:27.513Z,22.90
2022-08-05T08:15:02.474Z,23.60
2022-08-05T08:17:31.623Z,24.20
2022-08-05T08:20:21.167Z,24.40
2022-08-05T08:22:51.780Z,24.10
2022-08-05T08:25:26.586Z,23.80
2022-08-05T08:28:03.853Z,23.80
2022-08-05T08:30:47.428Z,24.00
2022-08-05T08:33:17.650Z,24.00
2022-08-05T08:35:53.093Z,23.90
2022-08-05T08:38:37.759Z,23.90
2022-08-05T08:41:06.882Z,23.90
2022-08-05T08:45:21.152Z,24.00
2022-08-05T08:46:25.073Z,24.20
2022-08-05T08:49:06.357Z,24.70
2022-08-05T08:52:03.671Z,25.20
2022-08-05T08:54:32.601Z,25.90
2022-08-05T08:57:00.664Z,26.50
2022-08-05T08:59:33.521Z,26.50
2022-08-05T09:02:06.228Z,25.90
2022-08-05T09:04:58.213Z,25.60
2022-08-05T09:07:29.122Z,25.40
2022-08-05T09:10:07.905Z,25.40
2022-08-05T09:12:36.030Z,25.20
2022-08-05T09:15:06.146Z,25.10
2022-08-05T09:17:42.687Z,25.60
2022-08-05T09:20:20.882Z,26.40
2022-08-05T09:23:18.980Z,26.90
2022-08-05T09:26:01.063Z,26.80
2022-08-05T09:28:31.857Z,26.80
2022-08-05T09:31:22.614Z,26.10
2022-08-05T09:33:54.765Z,26.40
2022-08-05T09:36:27.331Z,26.90
2022-08-05T09:39:02.426Z,27.60
2022-08-05T09:41:33.132Z,27.90
2022-08-05T09:44:06.270Z,28.20
2022-08-05T09:46:35.204Z,28.70
2022-08-05T09:49:19.141Z,28.90
2022-08-05T09:51:48.683Z,28.90
2022-08-05T09:54:21.381Z,29.20
2022-08-05T09:56:57.785Z,29.50
2022-08-05T09:59:35.171Z,29.70
2022-08-05T10:02:05.984Z,30.00
2022-08-05T10:04:41.031Z,30.20
2022-08-05T10:07:20.405Z,30.20
2022-08-05T10:10:15.244Z,30.50
2022-08-05T10:12:49.699Z,30.70
2022-08-05T10:15:20.015Z,31.40
2022-08-05T10:18:12.379Z,31.60
2022-08-05T10:20:44.193Z,31.50
2022-08-05T10:23:34.368Z,30.80
2022-08-05T10:26:05.616Z,30.00
2022-08-05T10:28:36.468Z,29.90
2022-08-05T10:32:48.874Z,29.90
2022-08-05T10:33:54.357Z,29.80
2022-08-05T10:36:25.988Z,29.50
2022-08-05T10:38:59.283Z,29.80
2022-08-05T10:41:44.918Z,30.10
2022-08-05T10:44:18.234Z,30.20
2022-08-05T10:46:51.090Z,30.60
2022-08-05T10:49:26.726Z,30.80
2022-08-05T10:52:05.267Z,31.50
2022-08-05T10:54:56.213Z,31.00
2022-08-05T10:57:29.478Z,31.50
2022-08-05T11:00:19.295Z,31.20
2022-08-05T11:03:23.545Z,31.20
2022-08-05T11:06:15.381Z,31.70
2022-08-05T11:08:59.071Z,32.00
2022-08-05T11:11:44.409Z,32.20
2022-08-05T11:14:13.405Z,32.40
2022-08-05T11:16:55.972Z,33.00
2022-08-05T11:20:16.793Z,33.10
2022-08-05T11:22:33.636Z,33.20
2022-08-05T11:26:05.243Z,33.60
2022-08-05T11:28:26.906Z,33.10
2022-08-05T11:31:12.686Z,32.10
2022-08-05T11:34:03.550Z,31.40
2022-08-05T11:36:55.456Z,31.30
2022-08-05T11:39:43.129Z,31.90
2022-08-05T11:42:18.300Z,31.80
2022-08-05T11:44:53.875Z,31.80
2022-08-05T11:47:48.600Z,32.30
2022-08-05T11:50:14.282Z,32.50
2022-08-05T11:52:44.142Z,32.00
2022-08-05T11:55:14.623Z,32.00
2022-08-05T11:58:11.053Z,32.00
2022-08-05T12:00:37.705Z,31.80
2022-08-05T12:03:28.625Z,32.30
2022-08-05T12:06:01.571Z,31.20
2022-08-05T12:08:31.501Z,30.60
2022-08-05T12:11:01.627Z,31.40
2022-08-05T12:13:48.808Z,31.60
2022-08-05T12:16:27.170Z,32.10
2022-08-05T12:18:56.765Z,32.10
2022-08-05T12:21:29.936Z,32.50
2022-08-05T12:24:04.789Z,32.50
2022-08-05T12:26:36.395Z,32.10
2022-08-05T12:29:05.538Z,32.10
2022-08-05T12:31:43.489Z,32.00
2022-08-05T12:34:21.466Z,32.40
2022-08-05T12:36:54.171Z,33.10
2022-08-05T12:39:22.239Z,32.90
2022-08-05T12:41:51.675Z,31.90
2022-08-05T12:44:33.393Z,31.30
2022-08-05T12:47:02.432Z,31.50
2022-08-05T12:50:04.782Z,32.60
2022-08-05T12:52:38.511Z,32.70
2022-08-05T12:55:22.617Z,32.60
2022-08-05T12:58:50.507Z,32.40
2022-08-05T13:02:00.557Z,32.40
2022-08-05T13:03:31.999Z,32.30
2022-08-05T13:06:00.844Z,32.20
2022-08-05T13:08:32.368Z,31.60
2022-08-05T13:11:01.010Z,31.60
2022-08-05T13:14:06.301Z,31.80
2022-08-05T13:16:17.119Z,31.50
2022-08-05T13:18:51.914Z,31.80
2022-08-05T13:21:19.766Z,32.20
2022-08-05T13:23:50.553Z,31.30
2022-08-05T13:26:24.061Z,31.80
2022-08-05T13:28:59.274Z,31.90
2022-08-05T13:31:33.857Z,31.90
2022-08-05T13:34:22.809Z,31.60
2022-08-05T13:36:53.917Z,31.00
2022-08-05T13:40:12.828Z,30.80
2022-08-05T13:42:14.543Z,31.10
2022-08-05T13:44:45.506Z,30.60
2022-08-05T13:47:34.695Z,30.40
2022-08-05T13:50:04.067Z,30.30
2022-08-05T13:52:35.168Z,30.40
2022-08-05T13:55:07.674Z,31.10
2022-08-05T13:57:50.651Z,30.90
2022-08-05T14:00:27.059Z,31.10
2022-08-05T14:02:56.308Z,31.10
2022-08-05T14:05:48.046Z,31.50
2022-08-05T14:08:21.317Z,30.90
2022-08-05T14:10:59.610Z,29.90
2022-08-05T14:13:32.183Z,29.80
2022-08-05T14:16:09.326Z,30.00
2022-08-05T14:18:39.198Z,29.90
2022-08-05T14:22:07.360Z,30.40
2022-08-05T14:23:55.318Z,30.60
2022-08-05T14:26:35.656Z,29.90
2022-08-05T14:29:15.916Z,29.90
2022-08-05T14:31:54.273Z,29.90
2022-08-05T14:34:35.441Z,30.30
2022-08-05T14:37:04.089Z,29.60
2022-08-05T14:39:50.013Z,29.40
2022-08-05T14:42:22.343Z,29.00
2022-08-05T14:44:50.366Z,29.70
2022-08-05T14:48:03.044Z,30.10
2022-08-05T14:50:17.173Z,30.30
2022-08-05T14:52:57.824Z,29.60
2022-08-05T14:55:28.572Z,29.30
2022-08-05T14:58:11.041Z,28.90
2022-08-05T15:00:39.743Z,29.00
2022-08-05T15:03:27.748Z,29.40
2022-08-05T15:06:07.803Z,29.20
2022-08-05T15:08:59.449Z,29.60
2022-08-05T15:11:51.920Z,29.20
2022-08-05T15:14:34.247Z,29.50
2022-08-05T15:17:04.305Z,29.20
2022-08-05T15:19:32.536Z,29.60
2022-08-05T15:22:01.481Z,29.50
2022-08-05T15:24:29.554Z,29.30
2022-08-05T15:26:57.525Z,29.20
2022-08-05T15:29:30.102Z,28.90
2022-08-05T15:32:02.443Z,29.00
2022-08-05T15:34:33.862Z,29.30
2022-08-05T15:37:06.446Z,28.70
2022-08-05T15:41:01.109Z,28.20
2022-08-05T15:42:55.300Z,28.50
2022-08-05T15:45:38.286Z,28.30
2022-08-05T15:48:07.026Z,27.80
2022-08-05T15:50:34.918Z,27.50
2022-08-05T15:53:05.742Z,27.30
2022-08-05T15:56:03.936Z,26.90
2022-08-05T15:58:23.238Z,27.40
2022-08-05T16:01:16.596Z,27.00
2022-08-05T16:03:40.921Z,27.20
2022-08-05T16:06:11.453Z,27.70
2022-08-05T16:08:40.112Z,27.40
2022-08-05T16:11:08.430Z,27.50
2022-08-05T16:13:36.294Z,27.40
2022-08-05T16:16:05.799Z,27.80
2022-08-05T16:18:33.763Z,27.80
2022-08-05T16:21:04.134Z,27.80
2022-08-05T16:23:54.616Z,27.40
2022-08-05T16:26:26.582Z,27.30
2022-08-05T16:28:55.129Z,27.60
2022-08-05T16:31:24.419Z,27.80
2022-08-05T16:33:53.714Z,27.30
2022-08-05T16:36:23.967Z,27.10
2022-08-05T16:38:55.587Z,27.00
2022-08-05T16:42:14.830Z,27.10
2022-08-05T16:44:12.343Z,26.90
2022-08-05T16:46:41.916Z,26.60
2022-08-05T16:49:26.371Z,26.80
2022-08-05T16:51:56.857Z,26.80
2022-08-05T16:54:30.222Z,26.60
2022-08-05T16:57:00.866Z,26.50
2022-08-05T16:59:30.750Z,26.60
2022-08-05T17:02:00.971Z,26.30
2022-08-05T17:04:28.921Z,26.30
2022-08-05T17:07:00.878Z,25.90
2022-08-05T17:09:29.883Z,25.70
2022-08-05T17:11:59.852Z,25.60
2022-08-05T17:14:37.677Z,25.90
2022-08-05T17:17:14.386Z,25.70
2022-08-05T17:19:45.385Z,25.30
2022-08-05T17:22:24.842Z,25.30
2022-08-05T17:24:57.743Z,25.40
2022-08-05T17:27:27.262Z,25.20
2022-08-05T17:30:02.527Z,25.10
2022-08-05T17:32:34.641Z,25.10
2022-08-05T17:35:03.993Z,25.00
2022-08-05T17:37:40.269Z,25.00
2022-08-05T17:40:12.174Z,24.80
2022-08-05T17:42:41.424Z,24.70
2022-08-05T17:45:20.585Z,24.60
2022-08-05T17:47:54.627Z,24.60
2022-08-05T17:50:28.061Z,24.40
2022-08-05T17:52:58.991Z,24.10
2022-08-05T17:55:34.462Z,24.10
2022-08-05T17:58:06.773Z,24.20
2022-08-05T18:00:35.513Z,24.00
2022-08-05T18:03:04.817Z,23.90
2022-08-05T18:05:36.361Z,23.70
2022-08-05T18:08:04.459Z,23.60
2022-08-05T18:10:33.715Z,23.50
2022-08-05T18:13:01.812Z,23.40
2022-08-05T18:15:34.155Z,23.30
2022-08-05T18:18:05.775Z,23.40
2022-08-05T18:20:40.019Z,23.10
2022-08-05T18:23:09.587Z,23.10
2022-08-05T18:25:44.899Z,22.80
2022-08-05T18:28:16.627Z,22.60
2022-08-05T18:30:45.156Z,22.50
2022-08-05T18:33:13.449Z,22.40
2022-08-05T18:36:00.795Z,22.40
2022-08-05T18:38:31.589Z,22.10
2022-08-05T18:41:55.933Z,21.90
2022-08-05T18:43:48.554Z,21.90
2022-08-05T18:46:19.947Z,21.90
2022-08-05T18:48:51.518Z,21.80
2022-08-05T18:52:05.610Z,21.70
2022-08-05T18:54:27.534Z,21.60
2022-08-05T18:57:00.870Z,21.60
2022-08-05T18:59:43.751Z,21.50
2022-08-05T19:02:36.487Z,21.40
2022-08-05T19:06:05.696Z,21.30
2022-08-05T19:07:56.234Z,21.40
2022-08-05T19:10:27.960Z,21.20
2022-08-05T19:12:57.023Z,21.10
2022-08-05T19:15:57.147Z,21.10
2022-08-05T19:18:21.866Z,21.10
2022-08-05T19:20:52.343Z,20.90
2022-08-05T19:23:22.432Z,20.90
2022-08-05T19:26:11.370Z,20.90
2022-08-05T19:28:41.794Z,20.90
2022-08-05T19:31:13.660Z,20.90
2022-08-05T19:33:55.666Z,20.90
2022-08-05T19:36:25.039Z,20.90
2022-08-05T19:38:58.957Z,20.80
2022-08-05T19:41:58.077Z,20.80
2022-08-05T19:44:18.528Z,20.70
2022-08-05T19:46:46.788Z,20.70
2022-08-05T19:49:17.146Z,20.60
2022-08-05T19:52:08.267Z,20.60
2022-08-05T19:54:35.149Z,20.40
2022-08-05T19:57:06.310Z,20.30
2022-08-05T19:59:55.306Z,20.30
2022-08-05T20:02:25.967Z,20.10
2022-08-05T20:04:55.394Z,20.00
2022-08-05T20:07:47.122Z,20.00
2022-08-05T20:10:16.498Z,19.80
2022-08-05T20:12:48.011Z,19.80
2022-08-05T20:15:47.958Z,19.70
2022-08-05T20:18:10.689Z,19.60
2022-08-05T20:20:55.961Z,19.50
2022-08-05T20:23:40.177Z,19.30
2022-08-05T20:26:16.402Z,19.10
2022-08-05T20:28:45.557Z,19.10
2022-08-05T20:31:13.682Z,19.00
2022-08-05T20:33:44.974Z,18.80
2022-08-05T20:36:14.303Z,18.70
2022-08-05T20:38:53.377Z,18.60
2022-08-05T20:41:24.259Z,18.60
2022-08-05T20:43:59.551Z,18.50
2022-08-05T20:46:30.590Z,18.50
2022-08-05T20:48:59.790Z,18.40
2022-08-05T20:51:30.564Z,18.30
2022-08-05T20:54:01.364Z,18.20
2022-08-05T20:56:40.176Z,18.20
2022-08-05T20:59:19.091Z,18.20
2022-08-05T21:01:57.177Z,18.10
2022-08-05T21:04:26.840Z,18.00
2022-08-05T21:06:55.739Z,17.80
2022-08-05T21:09:23.774Z,17.80
2022-08-05T21:12:08.963Z,17.60
2022-08-05T21:14:39.588Z,17.50
2022-08-05T21:17:07.436Z,17.60
2022-08-05T21:19:46.767Z,17.50
2022-08-05T21:22:18.323Z,17.40
2022-08-05T21:24:51.515Z,17.40
2022-08-05T21:27:25.041Z,17.30
2022-08-05T21:29:55.285Z,17.30
2022-08-05T21:32:24.374Z,17.20
2022-08-05T21:35:08.661Z,17.10
2022-08-05T21:37:41.033Z,17.10
2022-08-05T21:40:13.109Z,16.90
2022-08-05T21:42:45.214Z,16.90
2022-08-05T21:45:24.051Z,16.90
2022-08-05T21:47:56.501Z,16.80
2022-08-05T21:50:25.948Z,16.80
2022-08-05T21:52:53.880Z,16.70
2022-08-05T21:56:01.577Z,16.50
2022-08-05T21:58:16.436Z,16.40
2022-08-05T22:00:51.239Z,16.40
2022-08-05T22:03:48.710Z,16.20
2022-08-05T22:06:08.249Z,16.10
2022-08-05T22:08:36.258Z,16.00
2022-08-05T22:11:11.873Z,16.00
2022-08-05T22:14:33.778Z,16.00
2022-08-05T22:16:51.110Z,16.00
2022-08-05T22:20:01.791Z,15.90
2022-08-05T22:22:08.760Z,15.90
2022-08-05T22:24:55.811Z,15.90
2022-08-05T22:28:09.914Z,15.90
2022-08-05T22:30:55.834Z,15.90
2022-08-05T22:33:55.688Z,15.80
2022-08-05T22:36:14.738Z,15.80
2022-08-05T22:38:43.182Z,15.70
2022-08-05T22:41:11.144Z,15.70
2022-08-05T22:43:40.592Z,15.70
2022-08-05T22:46:11.969Z,15.70
2022-08-05T22:48:42.068Z,15.60
2022-08-05T22:51:16.127Z,15.60
2022-08-05T22:53:50.987Z,15.60
2022-08-05T22:56:30.768Z,15.50
2022-08-05T22:59:00.027Z,15.50
2022-08-05T23:02:04.709Z,15.50
2022-08-05T23:04:21.177Z,15.40
2022-08-05T23:06:49.179Z,15.40
2022-08-05T23:09:52.891Z,15.20
2022-08-05T23:12:05.397Z,15.10
2022-08-05T23:14:34.105Z,15.20
2022-08-05T23:17:24.472Z,15.20
2022-08-05T23:20:02.427Z,15.10
2022-08-05T23:22:30.834Z,15.00
2022-08-05T23:24:59.115Z,14.90
2022-08-05T23:27:31.435Z,14.80
2022-08-05T23:30:15.635Z,14.80
2022-08-05T23:32:45.446Z,14.80
2022-08-05T23:35:13.325Z,14.80
2022-08-05T23:37:41.396Z,14.80
2022-08-05T23:40:11.869Z,14.80
2022-08-05T23:42:39.797Z,14.80
2022-08-05T23:45:14.165Z,14.70
2022-08-05T23:47:47.912Z,14.70
2022-08-05T23:50:20.022Z,14.70
2022-08-05T23:52:50.354Z,14.70
2022-08-05T23:55:18.983Z,14.70
2022-08-05T23:57:48.861Z,14.50
